Time;durP1;ratioP1;P1;durP2;ratioP2;P2;SDS_P1;SDS_P2;PMS_P1;PMS_P2;Temp;Humidity;BMP_temperature;BMP_pressure;BME280_temperature;BME280_humidity;BME280_pressure;Samples;Min_cycle;Max_cycle;Signal;HPM_P1;HPM_P2
2022/12/22 03:26:27;;;;;;;60.38;29.27;;;8.60;99.90;;;;;;5102932;28;20093;-81
2022/12/22 03:28:53;;;;;;;57.17;28.27;;;8.60;99.90;;;;;;5104702;28;20035;-81
2022/12/22 03:31:19;;;;;;;66.43;28.85;;;8.60;99.90;;;;;;5102931;28;20515;-81
2022/12/22 03:33:45;;;;;;;73.47;30.10;;;8.80;99.90;;;;;;5070524;28;20151;-81
2022/12/22 03:36:11;;;;;;;63.63;29.83;;;8.50;99.90;;;;;;5086884;28;20813;-81
2022/12/22 03:38:36;;;;;;;62.53;28.92;;;8.60;99.90;;;;;;5089935;28;20085;-81
2022/12/22 03:41:02;;;;;;;56.28;28.55;;;8.60;99.90;;;;;;5109299;28;20047;-81
2022/12/22 03:46:29;;;;;;;63.25;29.80;;;8.60;99.90;;;;;;5093996;28;20121;-80
2022/12/22 03:49:10;;;;;;;41.55;21.50;;;8.60;99.90;;;;;;5061113;28;20127;-81
2022/12/22 03:51:43;;;;;;;57.72;29.20;;;8.50;99.90;;;;;;5075074;28;20118;-80
2022/12/22 03:54:11;;;;;;;59.50;28.35;;;8.50;99.90;;;;;;5090470;28;20557;-80
2022/12/22 03:56:37;;;;;;;58.15;27.38;;;8.50;99.90;;;;;;5107083;28;20048;-82
2022/12/22 03:59:04;;;;;;;57.35;28.27;;;9.10;99.90;;;;;;5108438;28;20339;-81
2022/12/22 04:01:30;;;;;;;58.30;28.77;;;8.60;99.90;;;;;;5106961;28;20044;-81
2022/12/22 04:03:56;;;;;;;57.95;27.08;;;8.50;99.90;;;;;;5074117;28;20035;-81
2022/12/22 04:06:22;;;;;;;55.50;27.25;;;9.10;99.90;;;;;;5106715;28;20031;-81
2022/12/22 04:08:48;;;;;;;67.50;27.55;;;8.50;99.90;;;;;;5107930;28;20077;-82
2022/12/22 04:14:00;;;;;;;57.95;27.63;;;8.50;99.90;;;;;;5106563;28;20245;-81
2022/12/22 04:16:25;;;;;;;64.85;27.65;;;8.50;99.90;;;;;;5090850;28;20308;-81
2022/12/22 04:18:51;;;;;;;58.75;25.83;;;8.60;99.90;;;;;;5072529;28;20039;-81
2022/12/22 04:21:17;;;;;;;60.88;28.33;;;9.60;99.90;;;;;;5091420;28;20042;-81
2022/12/22 04:23:43;;;;;;;58.55;27.90;;;8.50;99.90;;;;;;5089985;28;20418;-82
2022/12/22 04:26:09;;;;;;;62.90;29.25;;;8.50;99.90;;;;;;5090562;28;20433;-81
2022/12/22 04:28:35;;;;;;;62.95;26.83;;;8.50;99.90;;;;;;5107136;28;20055;-81
2022/12/22 04:31:01;;;;;;;67.00;27.65;;;8.80;99.90;;;;;;5090359;27;20073;-80
2022/12/22 04:33:26;;;;;;;71.55;29.17;;;8.50;99.90;;;;;;5094056;27;20043;-80
2022/12/22 04:35:52;;;;;;;59.92;28.75;;;8.50;99.90;;;;;;5109305;27;20394;-79
2022/12/22 04:38:18;;;;;;;56.53;26.42;;;8.50;99.90;;;;;;5110647;27;20047;-81
2022/12/22 04:40:44;;;;;;;61.97;28.52;;;8.50;99.90;;;;;;5092916;27;20039;-81
2022/12/22 04:43:09;;;;;;;65.25;28.25;;;8.80;99.90;;;;;;5077351;27;20075;-81
2022/12/22 04:45:35;;;;;;;68.15;27.92;;;8.50;99.90;;;;;;5092974;27;20040;-81
2022/12/22 04:48:00;;;;;;;66.35;28.15;;;8.50;99.90;;;;;;5092645;27;20039;-81
2022/12/22 04:50:26;;;;;;;65.82;27.45;;;8.70;99.90;;;;;;5109337;27;20039;-81
2022/12/22 04:52:52;;;;;;;72.85;27.10;;;9.20;99.90;;;;;;5109316;27;20130;-81
2022/12/22 04:55:17;;;;;;;58.28;25.83;;;8.70;99.90;;;;;;5110236;27;20031;-81
2022/12/22 04:57:43;;;;;;;71.43;27.67;;;8.40;99.90;;;;;;5091933;27;20259;-80
2022/12/22 05:00:10;;;;;;;54.15;26.02;;;9.00;99.90;;;;;;5076587;27;20043;-80
2022/12/22 05:02:35;;;;;;;65.30;27.15;;;8.40;99.90;;;;;;5091694;27;20359;-80
2022/12/22 05:05:01;;;;;;;58.55;26.45;;;8.30;99.90;;;;;;5110321;27;20360;-82
2022/12/22 05:07:27;;;;;;;56.25;24.33;;;8.40;99.90;;;;;;5109588;27;20053;-81
2022/12/22 05:09:52;;;;;;;67.55;26.40;;;8.40;99.90;;;;;;5075541;27;20042;-81
2022/12/22 05:15:03;;;;;;;56.83;25.88;;;8.50;99.90;;;;;;5109214;27;20073;-81
2022/12/22 05:17:28;;;;;;;55.72;23.77;;;8.30;99.90;;;;;;5094209;27;20503;-81
2022/12/22 05:19:54;;;;;;;49.35;23.60;;;8.50;99.90;;;;;;5108653;27;20074;-81
2022/12/22 05:22:20;;;;;;;59.05;24.38;;;8.90;99.90;;;;;;5092359;27;20043;-81
2022/12/22 05:24:45;;;;;;;48.28;22.08;;;8.80;99.90;;;;;;5075474;27;20116;-81
2022/12/22 05:27:11;;;;;;;54.85;24.10;;;8.50;99.90;;;;;;5091741;27;20142;-80
2022/12/22 05:29:37;;;;;;;51.35;23.08;;;8.30;99.90;;;;;;5092902;27;20092;-79
2022/12/22 05:32:03;;;;;;;55.80;24.23;;;8.60;99.90;;;;;;5108037;27;20047;-81
2022/12/22 05:34:29;;;;;;;59.47;24.63;;;8.30;99.90;;;;;;5110286;27;20044;-79
2022/12/22 05:36:54;;;;;;;58.45;23.60;;;8.70;99.90;;;;;;5092074;27;20175;-79
2022/12/22 05:39:20;;;;;;;50.83;20.85;;;8.30;99.90;;;;;;5109350;27;20478;-80
2022/12/22 05:41:46;;;;;;;50.90;20.67;;;8.50;99.90;;;;;;5108301;27;20051;-81
2022/12/22 05:44:11;;;;;;;45.67;21.00;;;9.00;99.90;;;;;;5074124;27;20209;-79
2022/12/22 05:46:37;;;;;;;45.15;20.92;;;8.90;99.90;;;;;;5091943;27;20055;-79
2022/12/22 05:49:03;;;;;;;49.75;21.33;;;8.20;99.90;;;;;;5089991;27;20085;-81
2022/12/22 05:51:29;;;;;;;55.38;20.15;;;8.10;99.90;;;;;;5092472;27;20046;-82
2022/12/22 05:53:54;;;;;;;47.25;20.02;;;8.20;99.90;;;;;;5107113;27;20138;-79
2022/12/22 05:56:20;;;;;;;45.20;18.73;;;8.40;99.90;;;;;;5109267;27;20045;-80
2022/12/22 05:58:45;;;;;;;44.90;20.05;;;8.10;99.90;;;;;;5090874;27;20065;-80
2022/12/22 06:01:11;;;;;;;44.88;18.77;;;8.00;99.90;;;;;;5107993;27;20042;-81
2022/12/22 06:03:37;;;;;;;42.20;17.38;;;8.00;99.90;;;;;;5108018;27;20145;-81
2022/12/22 06:06:03;;;;;;;43.75;18.70;;;8.00;99.90;;;;;;5107683;27;20191;-82
2022/12/22 06:08:28;;;;;;;37.22;16.23;;;8.00;99.90;;;;;;5108573;27;20043;-80
2022/12/22 06:10:55;;;;;;;44.30;17.00;;;8.60;99.90;;;;;;5106801;27;20047;-80
2022/12/22 06:13:21;;;;;;;35.67;15.45;;;8.70;99.90;;;;;;5108989;27;20371;-80
2022/12/22 06:15:48;;;;;;;32.83;14.48;;;7.80;99.90;;;;;;5107149;27;20043;-82
2022/12/22 06:18:13;;;;;;;38.55;16.10;;;7.80;99.90;;;;;;5107744;27;20091;-81
2022/12/22 06:20:39;;;;;;;37.70;14.55;;;8.40;99.90;;;;;;5090347;27;20047;-81
2022/12/22 06:23:06;;;;;;;35.97;14.35;;;7.60;99.90;;;;;;5073445;27;20042;-82
2022/12/22 06:25:32;;;;;;;37.92;14.82;;;7.60;99.90;;;;;;5091749;28;20039;-82
2022/12/22 06:27:57;;;;;;;46.10;15.25;;;8.10;99.90;;;;;;5107738;28;20047;-81
2022/12/22 06:30:23;;;;;;;35.17;16.35;;;6.40;99.90;;;;;;5091672;27;20119;-82
2022/12/22 06:32:49;;;;;;;37.45;15.30;;;7.40;99.90;;;;;;5090329;27;20126;-82
2022/12/22 06:35:14;;;;;;;38.28;16.23;;;7.40;99.90;;;;;;5107881;27;20494;-83
2022/12/22 06:37:40;;;;;;;45.10;16.27;;;7.30;99.90;;;;;;5107245;27;20123;-80
2022/12/22 06:40:07;;;;;;;36.47;15.85;;;7.20;99.90;;;;;;5107330;27;20397;-80
2022/12/22 06:45:17;;;;;;;50.13;16.48;;;8.30;99.90;;;;;;5106722;27;20075;-82
2022/12/22 06:47:42;;;;;;;40.47;16.38;;;7.10;99.90;;;;;;5108964;27;20047;-83
2022/12/22 06:50:09;;;;;;;43.90;17.30;;;7.00;99.90;;;;;;5090413;28;20031;-82
2022/12/22 06:52:34;;;;;;;40.55;17.63;;;6.90;99.90;;;;;;5108316;28;20069;-83
2022/12/22 06:55:01;;;;;;;48.17;19.38;;;7.40;99.90;;;;;;5107115;27;20518;-83
2022/12/22 06:57:27;;;;;;;52.47;20.20;;;6.90;99.90;;;;;;5090787;28;20086;-83
2022/12/22 06:59:53;;;;;;;52.92;21.65;;;7.30;99.90;;;;;;5107884;28;20047;-83
2022/12/22 07:02:19;;;;;;;57.35;21.35;;;6.70;99.90;;;;;;5089687;28;20126;-84
2022/12/22 07:04:45;;;;;;;59.60;20.88;;;7.10;99.90;;;;;;5074405;28;20138;-83
2022/12/22 07:07:10;;;;;;;66.80;21.05;;;6.90;99.90;;;;;;5107360;28;20051;-83
2022/12/22 07:09:36;;;;;;;65.38;21.35;;;7.00;99.90;;;;;;5074287;28;20436;-83
2022/12/22 07:12:02;;;;;;;74.38;20.48;;;7.10;99.90;;;;;;5090939;27;20046;-83
2022/12/22 07:14:28;;;;;;;57.92;21.70;;;7.10;99.90;;;;;;5111269;27;20117;-83
2022/12/22 07:16:53;;;;;;;54.95;19.83;;;7.10;99.90;;;;;;5112243;27;20047;-83
2022/12/22 07:19:19;;;;;;;70.15;23.85;;;7.10;99.90;;;;;;5111393;27;20558;-83
2022/12/22 07:21:46;;;;;;;50.72;19.52;;;7.10;99.90;;;;;;5078255;27;20480;-82
2022/12/22 07:24:12;;;;;;;52.10;19.55;;;7.10;99.90;;;;;;5094352;27;20043;-82
2022/12/22 07:26:38;;;;;;;43.40;18.17;;;7.70;99.90;;;;;;5112134;27;20050;-84
2022/12/22 07:29:04;;;;;;;47.85;17.08;;;7.00;99.90;;;;;;5093624;27;20043;-82
2022/12/22 07:31:29;;;;;;;41.70;16.40;;;8.20;99.90;;;;;;5094268;27;20142;-83
2022/12/22 07:33:55;;;;;;;44.65;17.40;;;6.90;99.90;;;;;;5111556;27;20051;-83
2022/12/22 07:36:21;;;;;;;51.28;18.00;;;6.90;99.90;;;;;;5110961;27;20050;-83
2022/12/22 07:38:49;;;;;;;49.67;17.52;;;6.80;99.90;;;;;;5111594;27;20039;-83
2022/12/22 07:44:02;;;;;;;42.47;16.50;;;7.30;99.90;;;;;;5111456;27;20508;-83
2022/12/22 07:46:31;;;;;;;37.78;15.30;;;6.70;99.90;;;;;;5093776;27;20133;-84
2022/12/22 07:51:41;;;;;;;44.55;14.68;;;7.40;99.90;;;;;;5097541;27;20102;-84
2022/12/22 07:54:09;;;;;;;43.13;15.25;;;7.40;99.90;;;;;;5092966;27;20043;-84
2022/12/22 07:56:36;;;;;;;44.05;15.82;;;7.80;99.90;;;;;;5094657;27;20130;-84
2022/12/22 07:59:02;;;;;;;38.33;15.90;;;7.40;99.90;;;;;;5093390;27;20402;-84
2022/12/22 08:01:27;;;;;;;43.70;14.95;;;7.40;99.90;;;;;;5077434;27;20057;-84
2022/12/22 08:03:54;;;;;;;36.45;13.88;;;6.60;99.90;;;;;;5093378;27;20122;-83
2022/12/22 08:06:20;;;;;;;52.55;18.27;;;6.90;99.90;;;;;;5110108;27;20554;-84
2022/12/22 08:08:45;;;;;;;45.17;16.92;;;6.20;99.90;;;;;;5111332;27;20043;-84
2022/12/22 08:11:11;;;;;;;46.25;18.90;;;6.60;99.90;;;;;;5109876;27;20065;-83
2022/12/22 08:13:37;;;;;;;46.72;17.40;;;6.90;99.90;;;;;;5130023;27;20046;-83
2022/12/22 08:16:04;;;;;;;45.10;17.05;;;6.60;99.90;;;;;;5076113;27;20070;-83
2022/12/22 08:18:30;;;;;;;42.78;17.40;;;6.50;99.90;;;;;;5111096;27;20047;-84
2022/12/22 08:20:56;;;;;;;46.05;16.55;;;6.50;99.90;;;;;;5110121;27;20467;-84
2022/12/22 08:23:22;;;;;;;47.50;16.75;;;6.80;99.90;;;;;;5093559;27;20043;-83
2022/12/22 08:25:54;;;;;;;43.58;15.77;;;6.50;99.90;;;;;;5077030;27;20049;-84
2022/12/22 08:28:20;;;;;;;41.80;14.82;;;6.60;99.90;;;;;;5128628;27;20200;-84
2022/12/22 08:30:47;;;;;;;47.08;13.27;;;6.90;99.90;;;;;;5110797;27;20089;-84
2022/12/22 08:33:12;;;;;;;53.83;14.05;;;6.60;99.90;;;;;;5105110;28;20099;-85
2022/12/22 08:35:38;;;;;;;46.38;13.38;;;7.10;99.90;;;;;;5108379;28;20067;-84
2022/12/22 08:38:05;;;;;;;44.13;13.35;;;6.60;99.90;;;;;;5105522;28;20040;-84
2022/12/22 08:40:31;;;;;;;49.90;16.85;;;7.10;99.90;;;;;;5106916;28;20112;-84
2022/12/22 08:43:06;;;;;;;74.90;16.80;;;7.20;99.90;;;;;;5107271;28;20115;-84
2022/12/22 08:45:32;;;;;;;72.55;18.33;;;6.60;99.90;;;;;;5105895;28;20032;-84
2022/12/22 08:47:57;;;;;;;74.57;21.25;;;6.60;99.90;;;;;;5107062;28;20085;-83
2022/12/22 08:50:23;;;;;;;106.45;23.23;;;6.60;99.90;;;;;;5088723;28;20044;-84
2022/12/22 08:52:49;;;;;;;90.30;26.45;;;6.90;99.90;;;;;;5106601;28;20043;-85
2022/12/22 08:55:15;;;;;;;154.68;25.23;;;6.50;99.90;;;;;;5088833;28;20124;-84
2022/12/22 08:57:40;;;;;;;105.35;24.20;;;6.50;99.90;;;;;;5072986;28;20582;-85
2022/12/22 09:00:08;;;;;;;62.88;20.45;;;6.60;99.90;;;;;;5095725;28;20043;-85
2022/12/22 09:02:34;;;;;;;68.93;19.70;;;6.60;99.90;;;;;;5073040;28;20046;-85
2022/12/22 09:05:00;;;;;;;74.00;19.35;;;6.60;99.90;;;;;;5090492;28;20386;-84
2022/12/22 09:07:26;;;;;;;71.97;17.52;;;6.60;99.90;;;;;;5088276;28;20044;-85
2022/12/22 09:09:53;;;;;;;63.88;17.25;;;6.60;99.90;;;;;;5089192;28;20050;-85
2022/12/22 09:12:19;;;;;;;47.72;15.52;;;7.20;99.90;;;;;;5088373;28;20047;-83
2022/12/22 09:14:45;;;;;;;49.00;14.60;;;6.60;99.90;;;;;;5088822;28;20418;-84
2022/12/22 09:17:10;;;;;;;46.35;14.25;;;7.10;99.90;;;;;;5105414;28;20036;-83
2022/12/22 09:19:36;;;;;;;40.63;12.52;;;7.10;99.90;;;;;;5072181;28;20050;-83
2022/12/22 09:22:02;;;;;;;33.83;12.82;;;6.80;99.90;;;;;;5106980;28;20048;-84
2022/12/22 09:24:28;;;;;;;45.20;13.13;;;7.90;99.90;;;;;;5104836;28;20460;-84
2022/12/22 09:26:53;;;;;;;32.55;11.18;;;6.80;99.90;;;;;;5089068;28;20078;-84
2022/12/22 09:29:20;;;;;;;31.58;10.65;;;6.70;99.90;;;;;;5104689;28;20046;-84
2022/12/22 09:31:46;;;;;;;29.55;10.30;;;7.30;99.90;;;;;;5088693;28;20055;-83
2022/12/22 09:34:12;;;;;;;26.50;9.85;;;7.20;99.90;;;;;;5104479;28;20059;-84
2022/12/22 09:36:40;;;;;;;21.90;9.77;;;6.80;99.90;;;;;;5105343;28;20040;-84
2022/12/22 09:39:07;;;;;;;21.95;8.55;;;6.80;99.90;;;;;;5105609;28;20054;-84
2022/12/22 09:41:50;;;;;;;22.70;9.07;;;7.60;99.90;;;;;;5087546;28;20058;-84
2022/12/22 09:44:26;;;;;;;23.40;9.95;;;7.80;99.90;;;;;;5107212;28;20051;-84
2022/12/22 09:46:54;;;;;;;20.95;9.18;;;6.90;99.90;;;;;;5104359;28;20553;-84
2022/12/22 09:49:21;;;;;;;27.63;9.77;;;6.90;99.90;;;;;;5105358;28;20032;-84
2022/12/22 09:52:01;;;;;;;19.30;9.73;;;7.30;99.90;;;;;;5088728;28;20382;-84
2022/12/22 09:54:28;;;;;;;29.45;11.45;;;6.90;99.90;;;;;;5104429;28;20118;-84
2022/12/22 09:56:54;;;;;;;26.85;11.45;;;7.80;99.90;;;;;;5088171;28;20316;-84
2022/12/22 09:59:21;;;;;;;25.85;9.90;;;7.00;99.90;;;;;;5103795;28;20094;-84
2022/12/22 10:02:17;;;;;;;18.77;8.65;;;7.10;99.90;;;;;;5088133;28;20044;-84
2022/12/22 10:04:58;;;;;;;18.33;8.15;;;7.20;99.90;;;;;;5088174;28;20048;-85
2022/12/22 10:07:37;;;;;;;17.92;6.80;;;7.20;99.90;;;;;;5104424;28;20047;-83
2022/12/22 10:10:23;;;;;;;13.23;6.90;;;7.30;99.90;;;;;;5106063;28;20431;-84
2022/12/22 10:12:50;;;;;;;17.45;7.70;;;7.40;99.90;;;;;;5104121;28;20498;-85
2022/12/22 10:15:15;;;;;;;19.08;7.57;;;7.40;99.90;;;;;;5104911;28;20054;-85
2022/12/22 10:17:41;;;;;;;17.77;7.63;;;7.50;99.90;;;;;;5105307;28;20135;-85
2022/12/22 10:20:28;;;;;;;17.35;6.93;;;7.50;99.90;;;;;;5103797;28;20479;-85
2022/12/22 10:23:00;;;;;;;16.60;7.75;;;7.70;99.90;;;;;;5105137;28;20078;-85
2022/12/22 10:26:02;;;;;;;14.33;6.03;;;7.70;99.90;;;;;;5103555;28;20122;-85
2022/12/22 10:28:36;;;;;;;20.95;7.38;;;7.60;99.90;;;;;;5103902;28;20046;-85
2022/12/22 10:31:16;;;;;;;12.75;6.63;;;8.20;99.90;;;;;;5105140;28;20043;-85
2022/12/22 10:33:44;;;;;;;17.33;6.75;;;8.10;99.90;;;;;;5103526;28;20051;-85
2022/12/22 10:36:12;;;;;;;21.27;7.00;;;7.80;99.90;;;;;;5087747;28;20076;-84
2022/12/22 10:39:00;;;;;;;13.05;6.00;;;8.90;99.90;;;;;;5103464;28;20036;-85
2022/12/22 10:41:35;;;;;;;20.75;8.02;;;7.80;99.90;;;;;;5103705;28;20053;-85
2022/12/22 10:44:05;;;;;;;12.93;6.75;;;8.10;99.90;;;;;;5104699;28;20043;-84
2022/12/22 10:46:50;;;;;;;14.40;7.00;;;7.90;99.90;;;;;;5102482;28;20039;-85
2022/12/22 10:49:36;;;;;;;15.98;6.30;;;8.00;99.90;;;;;;5104467;28;20108;-85
2022/12/22 10:52:22;;;;;;;15.80;6.22;;;8.00;99.90;;;;;;5087140;28;20534;-85
2022/12/22 10:54:48;;;;;;;21.55;6.68;;;8.20;99.90;;;;;;5086412;28;20395;-85
2022/12/22 10:57:13;;;;;;;17.35;5.88;;;8.40;99.90;;;;;;5070314;28;20046;-85
2022/12/22 11:00:20;;;;;;;23.48;7.07;;;9.10;99.90;;;;;;5103393;28;20101;-85
2022/12/22 11:02:51;;;;;;;25.13;6.38;;;8.20;99.90;;;;;;5086507;28;20503;-85
2022/12/22 11:05:17;;;;;;;14.88;5.75;;;8.20;99.90;;;;;;5105283;28;20043;-86
2022/12/22 11:07:48;;;;;;;13.18;5.78;;;8.20;99.90;;;;;;5069517;28;20505;-83
2022/12/22 11:10:17;;;;;;;15.27;6.15;;;8.20;99.90;;;;;;5087966;28;20391;-84
2022/12/22 11:12:45;;;;;;;9.80;4.78;;;8.30;99.90;;;;;;5103530;28;20096;-84
2022/12/22 11:15:35;;;;;;;14.07;5.47;;;8.30;99.90;;;;;;5087762;28;20132;-84
2022/12/22 11:18:04;;;;;;;13.10;5.68;;;8.30;99.90;;;;;;5089518;28;20051;-85
2022/12/22 11:20:51;;;;;;;15.63;6.10;;;8.30;99.90;;;;;;5105644;28;20047;-85
2022/12/22 11:23:29;;;;;;;14.55;6.07;;;8.30;99.90;;;;;;5087835;28;20092;-85
2022/12/22 11:26:10;;;;;;;19.55;6.15;;;8.40;99.90;;;;;;5086125;28;20043;-84
2022/12/22 11:29:01;;;;;;;12.02;5.57;;;8.40;99.90;;;;;;5103848;28;20429;-84
2022/12/22 11:31:36;;;;;;;16.15;5.43;;;8.60;99.90;;;;;;5106776;27;20087;-85
2022/12/22 11:34:34;;;;;;;16.33;6.78;;;8.60;99.90;;;;;;5088789;28;20047;-85
2022/12/22 11:36:59;;;;;;;16.38;5.57;;;8.70;99.90;;;;;;5107081;28;20179;-84
2022/12/22 11:39:25;;;;;;;20.23;5.05;;;8.80;99.90;;;;;;5107277;28;20133;-84
2022/12/22 11:42:15;;;;;;;17.63;4.55;;;9.60;99.90;;;;;;5089740;28;20047;-84
2022/12/22 11:44:59;;;;;;;15.18;3.63;;;8.70;99.90;;;;;;5107347;28;20126;-84
2022/12/22 11:47:46;;;;;;;13.75;4.72;;;8.70;99.90;;;;;;5089490;28;20054;-84
2022/12/22 11:50:33;;;;;;;14.80;4.40;;;8.70;99.90;;;;;;5106641;28;20075;-84
2022/12/22 11:53:27;;;;;;;14.52;3.75;;;8.70;99.90;;;;;;5107671;28;20051;-83
2022/12/22 11:55:59;;;;;;;;;;;8.70;99.90;;;;;;5106848;28;20043;-83
2022/12/22 11:58:34;;;;;;;11.65;4.10;;;8.70;99.90;;;;;;5090591;27;19923;-84
2022/12/22 12:01:00;;;;;;;10.43;3.58;;;8.70;99.90;;;;;;5111233;27;20043;-84
2022/12/22 12:03:40;;;;;;;12.00;3.45;;;8.80;99.90;;;;;;5110219;27;20043;-84
2022/12/22 12:06:18;;;;;;;12.20;3.72;;;8.80;99.90;;;;;;5111101;27;20079;-84
2022/12/22 12:08:53;;;;;;;13.07;3.22;;;8.80;99.90;;;;;;5109816;27;20130;-84
2022/12/22 12:11:41;;;;;;;21.40;4.97;;;8.90;99.90;;;;;;5094431;27;20497;-83
2022/12/22 12:14:21;;;;;;;11.60;3.35;;;8.90;99.90;;;;;;5111526;27;20171;-84
2022/12/22 12:17:27;;;;;;;11.82;4.18;;;8.90;99.90;;;;;;5109870;27;20039;-84
2022/12/22 12:20:08;;;;;;;13.32;3.08;;;8.90;99.90;;;;;;5112068;27;20676;-85
2022/12/22 12:23:06;;;;;;;12.95;3.05;;;9.00;99.90;;;;;;5110996;27;20498;-83
2022/12/22 12:25:39;;;;;;;13.20;3.20;;;9.00;99.90;;;;;;5110016;27;20519;-84
2022/12/22 12:28:50;;;;;;;14.70;3.38;;;9.00;99.90;;;;;;5094484;27;20135;-85
2022/12/22 12:31:18;;;;;;;13.07;3.70;;;9.10;99.90;;;;;;5088501;27;20059;-84
2022/12/22 12:33:50;;;;;;;11.65;2.45;;;9.70;99.90;;;;;;5109170;27;20066;-85
2022/12/22 12:36:40;;;;;;;12.15;2.80;;;9.10;99.90;;;;;;5111632;27;20051;-84
2022/12/22 12:39:24;;;;;;;12.90;3.55;;;9.10;99.90;;;;;;5109720;27;20086;-84
2022/12/22 12:42:08;;;;;;;11.82;2.30;;;9.00;99.90;;;;;;5092853;27;20089;-84
2022/12/22 12:44:36;;;;;;;15.65;2.75;;;9.00;99.90;;;;;;5094447;27;20398;-84
2022/12/22 12:47:25;;;;;;;14.75;2.50;;;9.00;99.90;;;;;;5109774;27;20046;-84
2022/12/22 12:50:33;;;;;;;11.00;2.90;;;9.00;99.90;;;;;;5111169;27;20402;-84
2022/12/22 12:53:05;;;;;;;13.32;2.85;;;8.90;99.90;;;;;;5080414;27;20051;-85
2022/12/22 12:55:37;;;;;;;10.90;1.90;;;9.20;99.90;;;;;;5109224;27;20043;-85
2022/12/22 12:58:08;;;;;;;6.57;1.95;;;8.90;99.90;;;;;;5093658;27;20127;-84
2022/12/22 13:00:34;;;;;;;17.88;2.92;;;8.80;99.90;;;;;;5075422;27;20039;-84
2022/12/22 13:03:08;;;;;;;15.60;2.92;;;9.30;99.90;;;;;;5092859;27;20039;-84
2022/12/22 13:05:48;;;;;;;15.88;3.17;;;8.80;99.90;;;;;;5093290;27;20082;-82
2022/12/22 13:08:50;;;;;;;19.65;4.45;;;8.70;99.90;;;;;;5109023;27;20239;-85
2022/12/22 13:11:17;;;;;;;12.00;2.75;;;8.70;99.90;;;;;;5109608;27;20047;-83
2022/12/22 13:13:45;;;;;;;10.80;2.80;;;9.40;99.90;;;;;;5092036;27;20051;-83
2022/12/22 13:16:11;;;;;;;11.85;2.75;;;8.80;99.90;;;;;;5109262;27;20080;-84
2022/12/22 13:18:45;;;;;;;14.82;4.00;;;9.00;99.90;;;;;;5110054;27;20035;-83
2022/12/22 13:21:15;;;;;;;16.05;3.28;;;8.90;99.90;;;;;;5075629;27;20099;-83
2022/12/22 13:23:56;;;;;;;14.80;2.90;;;8.90;99.90;;;;;;5109811;27;20142;-83
2022/12/22 13:26:25;;;;;;;16.38;3.50;;;8.90;99.90;;;;;;5108166;27;20038;-84
2022/12/22 13:29:10;;;;;;;22.92;3.15;;;8.90;99.90;;;;;;5109318;27;20047;-84
2022/12/22 13:31:45;;;;;;;16.33;3.90;;;8.90;99.90;;;;;;5092014;27;20043;-83
2022/12/22 13:34:39;;;;;;;13.88;2.70;;;8.90;99.90;;;;;;5108095;27;20101;-83
2022/12/22 13:37:38;;;;;;;14.20;2.88;;;8.90;99.90;;;;;;5111213;27;20069;-83
2022/12/22 13:40:17;;;;;;;13.70;2.47;;;9.10;99.90;;;;;;5114980;27;20080;-83
2022/12/22 13:42:53;;;;;;;17.92;3.58;;;8.90;99.90;;;;;;5110361;27;20448;-82
2022/12/22 13:45:38;;;;;;;11.55;3.17;;;8.90;99.90;;;;;;5111248;27;20074;-83
2022/12/22 13:48:16;;;;;;;17.63;2.45;;;8.90;99.90;;;;;;5091799;27;20066;-83
2022/12/22 13:50:47;;;;;;;15.18;3.13;;;8.90;99.90;;;;;;5108315;27;20055;-85
2022/12/22 13:53:24;;;;;;;16.63;3.28;;;8.90;99.90;;;;;;5109970;27;20043;-84
2022/12/22 13:55:50;;;;;;;10.30;2.17;;;8.90;99.90;;;;;;5090481;27;20577;-84
2022/12/22 13:58:29;;;;;;;15.88;2.70;;;9.80;99.90;;;;;;5092239;27;20421;-83
2022/12/22 14:01:03;;;;;;;9.55;2.67;;;8.90;99.90;;;;;;5108154;27;20047;-84
2022/12/22 14:03:29;;;;;;;7.47;2.00;;;8.90;99.90;;;;;;5108390;27;20039;-84
2022/12/22 14:05:54;;;;;;;13.05;2.15;;;8.90;99.90;;;;;;5092001;27;20042;-83
2022/12/22 14:08:24;;;;;;;20.63;2.80;;;9.00;99.90;;;;;;5090458;27;20394;-83
2022/12/22 14:10:52;;;;;;;17.90;2.53;;;8.90;99.90;;;;;;5092026;27;20074;-83
2022/12/22 14:13:24;;;;;;;11.82;2.33;;;8.90;99.90;;;;;;5073759;27;20035;-84
2022/12/22 14:16:04;;;;;;;17.83;2.70;;;8.90;99.90;;;;;;5092511;27;20367;-84
2022/12/22 14:18:31;;;;;;;13.65;2.42;;;8.90;99.90;;;;;;5108239;27;20039;-85
2022/12/22 14:20:58;;;;;;;18.73;2.67;;;8.90;99.90;;;;;;5090564;27;20110;-85
2022/12/22 14:23:32;;;;;;;14.63;2.30;;;9.80;99.90;;;;;;5074394;27;20043;-87
2022/12/22 14:26:00;;;;;;;11.75;3.53;;;8.90;99.90;;;;;;5107318;27;20039;-87
2022/12/22 14:28:42;;;;;;;11.55;2.22;;;8.90;99.90;;;;;;5108121;27;20053;-84
2022/12/22 14:31:11;;;;;;;18.48;3.50;;;8.90;99.90;;;;;;5090751;27;20373;-84
2022/12/22 14:33:37;;;;;;;12.40;2.33;;;8.90;99.90;;;;;;5090251;27;20048;-84
2022/12/22 14:36:22;;;;;;;9.98;2.63;;;8.90;99.90;;;;;;5108033;27;20048;-84
2022/12/22 14:38:55;;;;;;;12.15;2.58;;;8.90;99.90;;;;;;5106932;27;20390;-84
2022/12/22 14:41:43;;;;;;;13.00;2.38;;;8.90;99.90;;;;;;5091083;27;20031;-84
2022/12/22 14:44:33;;;;;;;9.95;1.90;;;8.90;99.90;;;;;;5090174;27;20100;-84
2022/12/22 14:47:11;;;;;;;10.65;2.75;;;8.90;99.90;;;;;;5089318;27;20047;-84
2022/12/22 14:49:42;;;;;;;21.67;2.15;;;8.90;99.90;;;;;;5091210;27;20043;-83
2022/12/22 14:52:21;;;;;;;7.43;2.28;;;8.80;99.90;;;;;;5106862;28;20043;-84
2022/12/22 14:54:50;;;;;;;10.80;2.47;;;8.80;99.90;;;;;;5107169;28;20031;-82
2022/12/22 14:57:39;;;;;;;15.88;1.98;;;8.80;99.90;;;;;;5107610;28;20102;-82
2022/12/22 15:00:23;;;;;;;8.40;1.40;;;8.80;99.90;;;;;;5105557;28;20146;-83
2022/12/22 15:02:53;;;;;;;9.27;2.17;;;8.80;99.90;;;;;;5107908;28;20490;-83
2022/12/22 15:05:34;;;;;;;6.03;1.30;;;8.90;99.90;;;;;;5089145;28;20039;-84
2022/12/22 15:08:00;;;;;;;14.63;2.38;;;8.70;99.90;;;;;;5089453;28;20051;-83
2022/12/22 15:10:33;;;;;;;17.90;2.33;;;8.60;99.90;;;;;;5091310;28;20035;-84
2022/12/22 15:13:04;;;;;;;14.93;2.10;;;8.60;99.90;;;;;;5106224;28;20035;-84
2022/12/22 15:15:31;;;;;;;9.98;3.13;;;8.60;99.90;;;;;;5107665;28;20035;-82
2022/12/22 15:17:57;;;;;;;9.95;2.40;;;8.80;99.90;;;;;;5073292;28;20043;-86
2022/12/22 15:20:26;;;;;;;15.40;4.38;;;8.60;99.90;;;;;;5073546;28;20042;-85
2022/12/22 15:22:52;;;;;;;8.50;1.58;;;8.60;99.90;;;;;;5090561;28;20047;-85
2022/12/22 15:25:20;;;;;;;12.40;2.10;;;8.50;99.90;;;;;;5106611;28;20486;-85
2022/12/22 15:27:46;;;;;;;12.38;2.33;;;8.50;99.90;;;;;;5090408;28;20057;-85
2022/12/22 15:30:16;;;;;;;9.88;3.28;;;8.50;99.90;;;;;;5106495;28;20035;-85
2022/12/22 15:32:42;;;;;;;11.95;2.85;;;8.50;99.90;;;;;;5090647;27;20194;-85
2022/12/22 15:35:22;;;;;;;12.50;2.72;;;8.60;99.90;;;;;;5092798;27;20130;-83
2022/12/22 15:37:48;;;;;;;10.68;2.67;;;8.50;99.90;;;;;;5112060;27;20031;-86
2022/12/22 15:40:17;;;;;;;9.65;1.98;;;8.40;99.90;;;;;;5094783;27;20035;-83
2022/12/22 15:42:43;;;;;;;9.48;2.05;;;8.40;99.90;;;;;;5129713;27;20050;-85
2022/12/22 15:45:09;;;;;;;9.98;3.45;;;8.50;99.90;;;;;;5111890;27;20076;-85
2022/12/22 15:47:34;;;;;;;11.63;2.80;;;8.40;99.90;;;;;;5076283;27;20139;-84
2022/12/22 15:50:00;;;;;;;15.18;2.33;;;8.80;99.90;;;;;;5112311;27;20079;-83
2022/12/22 15:52:26;;;;;;;13.98;4.22;;;8.60;99.90;;;;;;5110047;27;20043;-84
2022/12/22 15:54:52;;;;;;;11.52;2.58;;;8.30;99.90;;;;;;5060752;27;20096;-83
2022/12/22 15:57:18;;;;;;;11.00;3.83;;;8.30;99.90;;;;;;5093997;27;20418;-83
2022/12/22 15:59:43;;;;;;;12.63;4.05;;;8.50;99.90;;;;;;5076260;27;20039;-84
2022/12/22 16:02:12;;;;;;;9.13;2.95;;;8.80;99.90;;;;;;5068006;27;20054;-84
2022/12/22 16:04:38;;;;;;;13.73;2.70;;;8.30;99.90;;;;;;5112988;27;20113;-84
2022/12/22 16:07:04;;;;;;;12.65;3.13;;;8.20;99.90;;;;;;5113096;27;20038;-84
2022/12/22 16:09:37;;;;;;;12.82;2.90;;;8.80;99.90;;;;;;5093106;27;20517;-84
2022/12/22 16:12:11;;;;;;;;;;;8.20;99.90;;;;;;5094687;27;20484;-84
2022/12/22 16:14:37;;;;;;;7.60;3.03;;;8.20;99.90;;;;;;5110420;27;19964;-84
2022/12/22 16:17:02;;;;;;;12.07;3.92;;;8.20;99.90;;;;;;5093611;27;20043;-84
2022/12/22 16:19:28;;;;;;;10.80;3.35;;;8.20;99.90;;;;;;5111588;27;20032;-84
2022/12/22 16:21:54;;;;;;;11.55;3.38;;;8.20;99.90;;;;;;5110355;27;20126;-84
2022/12/22 16:24:26;;;;;;;8.82;3.80;;;8.20;99.90;;;;;;5095012;27;20050;-84
2022/12/22 16:26:55;;;;;;;13.48;3.78;;;8.80;99.90;;;;;;5109504;27;20039;-83
2022/12/22 16:29:21;;;;;;;12.68;3.67;;;8.10;99.90;;;;;;5076818;27;20125;-84
2022/12/22 16:31:48;;;;;;;19.08;3.70;;;8.10;99.90;;;;;;5092898;27;20533;-87
2022/12/22 16:34:14;;;;;;;10.85;3.65;;;8.10;99.90;;;;;;5109879;27;20474;-81
2022/12/22 16:36:40;;;;;;;11.60;3.65;;;8.10;99.90;;;;;;5094306;27;20054;-83
2022/12/22 16:39:06;;;;;;;12.07;3.67;;;8.10;99.90;;;;;;5092407;27;20047;-83
2022/12/22 16:41:32;;;;;;;8.57;3.30;;;8.00;99.90;;;;;;5110431;27;20042;-84
2022/12/22 16:43:59;;;;;;;9.88;3.33;;;8.00;99.90;;;;;;5074795;27;20076;-82